createdAt,value
2023-04-10T00:02:33.876Z,5.70
2023-04-10T00:05:35.577Z,5.67
2023-04-10T00:08:37.011Z,5.64
2023-04-10T00:11:38.470Z,5.66
2023-04-10T00:14:40.091Z,5.61
2023-04-10T00:17:41.553Z,5.60
2023-04-10T00:20:42.997Z,5.61
2023-04-10T00:23:44.419Z,5.58
2023-04-10T00:26:45.852Z,5.56
2023-04-10T00:29:47.504Z,5.52
2023-04-10T00:32:48.955Z,5.54
2023-04-10T00:35:50.506Z,5.52
2023-04-10T00:38:51.949Z,5.54
2023-04-10T00:41:53.346Z,5.54
2023-04-10T00:44:54.781Z,5.57
2023-04-10T00:47:57.328Z,5.58
2023-04-10T00:50:59.201Z,5.55
2023-04-10T00:54:01.336Z,5.55
2023-04-10T00:57:03.645Z,5.54
2023-04-10T01:00:05.475Z,5.54
2023-04-10T01:03:08.828Z,5.54
2023-04-10T01:06:16.063Z,5.40
2023-04-10T01:09:24.477Z,5.48
2023-04-10T01:12:58.325Z,5.50
2023-04-10T01:16:15.976Z,5.46
2023-04-10T01:19:54.997Z,5.44
2023-04-10T01:23:32.406Z,5.42
2023-04-10T01:26:47.203Z,5.41
2023-04-10T01:29:54.781Z,5.44
2023-04-10T01:32:59.671Z,5.45
2023-04-10T01:36:04.855Z,5.44
2023-04-10T01:39:08.340Z,5.44
2023-04-10T01:42:11.530Z,5.27
2023-04-10T01:45:20.626Z,5.32
2023-04-10T01:48:25.438Z,5.32
2023-04-10T01:51:27.623Z,5.32
2023-04-10T01:54:32.424Z,5.27
2023-04-10T01:57:34.270Z,5.23
2023-04-10T02:00:43.314Z,5.24
2023-04-10T02:03:47.616Z,5.23
2023-04-10T02:07:09.737Z,5.17
2023-04-10T02:10:22.301Z,5.18
2023-04-10T02:13:27.631Z,5.14
2023-04-10T02:16:31.626Z,5.15
2023-04-10T02:19:34.413Z,5.12
2023-04-10T02:22:36.701Z,5.09
2023-04-10T02:25:38.412Z,5.08
2023-04-10T02:28:40.065Z,5.05
2023-04-10T02:31:41.984Z,5.04
2023-04-10T02:34:43.576Z,5.00
2023-04-10T02:37:44.978Z,4.97
2023-04-10T02:40:46.513Z,4.92
2023-04-10T02:43:49.741Z,4.89
2023-04-10T02:46:54.253Z,4.86
2023-04-10T02:49:56.223Z,4.85
2023-04-10T02:52:59.073Z,4.78
2023-04-10T02:56:00.484Z,4.76
2023-04-10T02:59:02.025Z,4.75
2023-04-10T03:02:04.513Z,4.72
2023-04-10T03:05:09.520Z,4.73
2023-04-10T03:08:11.180Z,4.70
2023-04-10T03:11:12.566Z,4.69
2023-04-10T03:14:13.978Z,4.71
2023-04-10T03:17:15.385Z,4.67
2023-04-10T03:20:17.541Z,4.66
2023-04-10T03:23:18.954Z,4.66
2023-04-10T03:26:20.434Z,4.62
2023-04-10T03:29:21.904Z,4.60
2023-04-10T03:32:23.443Z,4.63
2023-04-10T03:35:24.899Z,4.62
2023-04-10T03:38:26.357Z,4.58
2023-04-10T03:41:27.767Z,4.56
2023-04-10T03:44:29.587Z,4.56
2023-04-10T03:47:32.046Z,4.50
2023-04-10T03:50:35.235Z,4.47
2023-04-10T03:53:36.716Z,4.48
2023-04-10T03:56:42.785Z,4.45
2023-04-10T03:59:45.617Z,4.37
2023-04-10T04:02:49.232Z,4.32
2023-04-10T04:06:22.692Z,4.26
2023-04-10T04:09:40.958Z,4.25
2023-04-10T04:13:14.694Z,4.20
2023-04-10T04:16:39.164Z,4.19
2023-04-10T04:19:52.944Z,4.16
2023-04-10T04:23:12.759Z,4.15
2023-04-10T04:26:14.216Z,4.12
2023-04-10T04:29:48.026Z,4.08
2023-04-10T04:33:07.951Z,4.08
2023-04-10T04:36:38.252Z,4.10
2023-04-10T04:40:06.463Z,4.09
2023-04-10T04:43:28.113Z,4.11
2023-04-10T04:46:34.083Z,4.09
2023-04-10T04:50:04.765Z,4.15
2023-04-10T04:53:28.718Z,4.22
2023-04-10T04:56:41.789Z,4.33
2023-04-10T05:00:01.578Z,4.47
2023-04-10T05:03:21.663Z,4.56
2023-04-10T05:06:35.623Z,4.65
2023-04-10T05:09:57.447Z,4.72
2023-04-10T05:13:17.237Z,4.84
2023-04-10T05:16:23.419Z,4.97
2023-04-10T05:19:30.740Z,5.11
2023-04-10T05:22:58.026Z,5.26
2023-04-10T05:26:28.895Z,5.36
2023-04-10T05:29:48.852Z,5.50
2023-04-10T05:33:12.124Z,5.62
2023-04-10T05:36:37.323Z,5.74
2023-04-10T05:39:51.692Z,5.82
2023-04-10T05:43:07.641Z,5.84
2023-04-10T05:46:29.106Z,5.96
2023-04-10T05:49:30.560Z,6.02
2023-04-10T05:52:46.247Z,6.10
2023-04-10T05:56:08.372Z,6.19
2023-04-10T05:59:36.123Z,6.41
2023-04-10T06:03:06.584Z,6.82
2023-04-10T06:06:12.494Z,6.97
2023-04-10T06:09:15.468Z,7.28
2023-04-10T06:12:16.938Z,7.61
2023-04-10T06:15:18.383Z,7.82
2023-04-10T06:18:20.329Z,7.83
2023-04-10T06:21:22.963Z,8.06
2023-04-10T06:24:24.485Z,8.47
2023-04-10T06:27:27.444Z,8.72
2023-04-10T06:30:28.931Z,8.92
2023-04-10T06:33:30.571Z,9.33
2023-04-10T06:36:32.096Z,9.62
2023-04-10T06:39:37.498Z,9.62
2023-04-10T06:42:38.933Z,9.22
2023-04-10T06:45:48.859Z,9.00
2023-04-10T06:48:50.298Z,9.40
2023-04-10T06:51:51.869Z,9.99
2023-04-10T06:54:53.319Z,10.36
2023-04-10T06:57:54.960Z,10.79
2023-04-10T07:00:56.472Z,10.96
2023-04-10T07:03:57.929Z,11.11
2023-04-10T07:06:59.509Z,11.75
2023-04-10T07:10:00.907Z,12.67
2023-04-10T07:13:02.386Z,13.03
2023-04-10T07:16:04.091Z,13.49
2023-04-10T07:19:05.522Z,13.83
2023-04-10T07:22:06.965Z,13.81
2023-04-10T07:25:08.873Z,13.76
2023-04-10T07:28:10.287Z,14.59
2023-04-10T07:31:11.848Z,14.62
2023-04-10T07:34:13.264Z,15.25
2023-04-10T07:37:14.739Z,15.24
2023-04-10T07:40:16.179Z,15.30
2023-04-10T07:43:17.589Z,15.39
2023-04-10T07:46:19.556Z,15.62
2023-04-10T07:49:21.259Z,15.48
2023-04-10T07:52:22.692Z,15.22
2023-04-10T07:55:24.074Z,15.21
2023-04-10T07:58:25.454Z,15.23
2023-04-10T08:01:27.873Z,15.78
2023-04-10T08:04:29.449Z,15.60
2023-04-10T08:07:30.956Z,16.11
2023-04-10T08:10:32.395Z,15.62
2023-04-10T08:13:34.089Z,15.13
2023-04-10T08:16:36.301Z,15.17
2023-04-10T08:19:37.731Z,15.28
2023-04-10T08:22:39.242Z,15.29
2023-04-10T08:25:40.616Z,15.55
2023-04-10T08:28:42.049Z,15.91
2023-04-10T08:31:43.466Z,16.22
2023-04-10T08:34:44.829Z,16.16
2023-04-10T08:37:49.692Z,16.50
2023-04-10T08:40:55.212Z,17.05
2023-04-10T08:43:57.384Z,17.33
2023-04-10T08:47:00.384Z,17.00
2023-04-10T08:50:07.113Z,17.09
2023-04-10T08:53:13.203Z,16.73
2023-04-10T08:56:16.234Z,16.06
2023-04-10T08:59:18.003Z,15.24
2023-04-10T09:02:20.364Z,15.45
2023-04-10T09:05:22.126Z,15.54
2023-04-10T09:08:23.505Z,15.56
2023-04-10T09:11:25.014Z,15.46
2023-04-10T09:14:28.333Z,15.38
2023-04-10T09:17:29.851Z,15.33
2023-04-10T09:20:32.274Z,15.71
2023-04-10T09:23:33.728Z,15.47
2023-04-10T09:26:35.600Z,15.53
2023-04-10T09:29:45.878Z,15.74
2023-04-10T09:32:47.325Z,15.80
2023-04-10T09:35:49.296Z,15.78
2023-04-10T09:38:54.383Z,16.08
2023-04-10T09:41:55.822Z,15.73
2023-04-10T09:44:57.212Z,15.75
2023-04-10T09:48:08.497Z,15.77
2023-04-10T09:51:28.237Z,15.71
2023-04-10T09:54:36.424Z,15.70
2023-04-10T09:57:37.857Z,15.96
2023-04-10T10:00:44.825Z,16.02
2023-04-10T10:03:46.689Z,16.20
2023-04-10T10:06:48.275Z,16.03
2023-04-10T10:09:52.070Z,16.21
2023-04-10T10:12:57.218Z,16.14
2023-04-10T10:16:12.550Z,16.26
2023-04-10T10:19:38.918Z,16.28
2023-04-10T10:22:40.941Z,16.06
2023-04-10T10:25:43.206Z,15.86
2023-04-10T10:28:46.165Z,15.95
2023-04-10T10:31:47.900Z,16.31
2023-04-10T10:34:52.651Z,16.48
2023-04-10T10:37:55.039Z,16.48
2023-04-10T10:41:08.818Z,16.38
2023-04-10T10:44:23.278Z,16.23
2023-04-10T10:47:28.991Z,16.43
2023-04-10T10:51:09.074Z,16.55
2023-04-10T10:54:29.659Z,16.65
2023-04-10T10:57:47.284Z,16.79
2023-04-10T11:00:51.641Z,17.04
2023-04-10T11:03:53.261Z,16.85
2023-04-10T11:06:54.756Z,16.58
2023-04-10T11:09:56.168Z,16.59
2023-04-10T11:13:16.098Z,16.64
2023-04-10T11:16:18.418Z,16.87
2023-04-10T11:19:22.562Z,17.04
2023-04-10T11:22:24.404Z,16.69
2023-04-10T11:25:48.350Z,16.51
2023-04-10T11:28:49.809Z,16.61
2023-04-10T11:31:56.822Z,16.50
2023-04-10T11:34:58.272Z,16.76
2023-04-10T11:38:16.561Z,16.87
2023-04-10T11:41:17.987Z,17.05
2023-04-10T11:44:30.256Z,17.19
2023-04-10T11:47:31.757Z,17.29
2023-04-10T11:50:33.236Z,17.13
2023-04-10T11:53:34.672Z,16.93
2023-04-10T11:56:38.097Z,16.95
2023-04-10T11:59:39.509Z,17.04
2023-04-10T12:02:53.121Z,16.99
2023-04-10T12:05:54.768Z,17.14
2023-04-10T12:08:56.356Z,17.11
2023-04-10T12:12:05.151Z,17.00
2023-04-10T12:15:26.232Z,17.05
2023-04-10T12:18:28.958Z,17.10
2023-04-10T12:21:30.503Z,17.21
2023-04-10T12:24:45.485Z,17.29
2023-04-10T12:27:49.111Z,17.11
2023-04-10T12:30:51.944Z,17.17
2023-04-10T12:33:53.468Z,17.35
2023-04-10T12:36:54.882Z,17.45
2023-04-10T12:40:07.146Z,17.15
2023-04-10T12:43:08.610Z,17.22
2023-04-10T12:46:10.839Z,17.09
2023-04-10T12:49:13.623Z,17.19
2023-04-10T12:52:22.973Z,17.21
2023-04-10T12:55:24.405Z,17.11
2023-04-10T12:58:25.958Z,17.11
2023-04-10T13:01:30.457Z,16.96
2023-04-10T13:04:32.093Z,16.98
2023-04-10T13:07:34.035Z,16.97
2023-04-10T13:10:35.500Z,16.97
2023-04-10T13:13:36.935Z,17.10
2023-04-10T13:16:38.388Z,17.14
2023-04-10T13:19:39.879Z,17.06
2023-04-10T13:22:41.269Z,17.07
2023-04-10T13:25:42.795Z,17.06
2023-04-10T13:28:44.275Z,17.00
2023-04-10T13:31:45.789Z,17.04
2023-04-10T13:34:47.238Z,17.15
2023-04-10T13:37:49.352Z,17.32
2023-04-10T13:40:52.768Z,17.30
2023-04-10T13:43:54.374Z,17.24
2023-04-10T13:46:56.041Z,17.15
2023-04-10T13:49:57.502Z,17.15
2023-04-10T13:52:58.960Z,16.98
2023-04-10T13:56:00.439Z,16.99
2023-04-10T13:59:01.983Z,16.96
2023-04-10T14:02:03.596Z,16.90
2023-04-10T14:05:05.403Z,16.96
2023-04-10T14:08:06.856Z,17.04
2023-04-10T14:11:08.272Z,17.15
2023-04-10T14:14:09.733Z,17.17
2023-04-10T14:17:11.268Z,17.09
2023-04-10T14:20:12.784Z,17.09
2023-04-10T14:23:14.221Z,17.05
2023-04-10T14:26:15.704Z,16.94
2023-04-10T14:29:20.197Z,16.93
2023-04-10T14:32:24.201Z,16.80
2023-04-10T14:35:25.668Z,16.75
2023-04-10T14:38:27.074Z,16.75
2023-04-10T14:41:28.503Z,16.74
2023-04-10T14:44:30.141Z,16.65
2023-04-10T14:47:32.153Z,16.63
2023-04-10T14:50:33.917Z,16.57
2023-04-10T14:53:35.305Z,16.69
2023-04-10T14:56:36.844Z,16.55
2023-04-10T14:59:39.404Z,16.48
2023-04-10T15:02:40.848Z,16.45
2023-04-10T15:05:42.300Z,16.51
2023-04-10T15:08:43.747Z,16.50
2023-04-10T15:11:45.193Z,16.54
2023-04-10T15:14:46.575Z,16.71
2023-04-10T15:17:48.004Z,16.71
2023-04-10T15:20:49.390Z,16.83
2023-04-10T15:23:50.796Z,17.00
2023-04-10T15:26:52.246Z,17.11
2023-04-10T15:29:53.649Z,17.04
2023-04-10T15:32:55.117Z,17.01
2023-04-10T15:35:56.615Z,16.96
2023-04-10T15:38:58.322Z,16.82
2023-04-10T15:41:59.831Z,16.75
2023-04-10T15:45:01.353Z,16.61
2023-04-10T15:48:04.015Z,16.48
2023-04-10T15:51:06.587Z,16.43
2023-04-10T15:54:08.107Z,16.35
2023-04-10T15:57:09.572Z,16.38
2023-04-10T16:00:11.631Z,16.39
2023-04-10T16:03:13.590Z,16.30
2023-04-10T16:06:15.119Z,16.32
2023-04-10T16:09:25.367Z,16.30
2023-04-10T16:12:27.745Z,16.32
2023-04-10T16:15:29.812Z,16.28
2023-04-10T16:18:31.288Z,16.24
2023-04-10T16:21:32.729Z,16.16
2023-04-10T16:24:34.119Z,16.12
2023-04-10T16:27:35.539Z,16.06
2023-04-10T16:30:37.166Z,15.97
2023-04-10T16:33:38.573Z,15.95
2023-04-10T16:36:40.031Z,15.88
2023-04-10T16:39:41.425Z,15.78
2023-04-10T16:42:42.939Z,15.75
2023-04-10T16:45:44.977Z,15.73
2023-04-10T16:48:46.368Z,15.70
2023-04-10T16:51:48.695Z,15.65
2023-04-10T16:54:50.144Z,15.59
2023-04-10T16:57:51.612Z,15.59
2023-04-10T17:00:53.099Z,15.56
2023-04-10T17:03:54.682Z,15.54
2023-04-10T17:06:56.153Z,15.48
2023-04-10T17:09:57.556Z,15.46
2023-04-10T17:12:58.960Z,15.44
2023-04-10T17:16:00.423Z,15.38
2023-04-10T17:19:02.300Z,15.30
2023-04-10T17:22:03.782Z,15.30
2023-04-10T17:25:06.189Z,15.25
2023-04-10T17:28:08.164Z,15.25
2023-04-10T17:31:09.626Z,15.22
2023-04-10T17:34:11.034Z,15.15
2023-04-10T17:37:12.441Z,15.14
2023-04-10T17:40:13.932Z,15.12
2023-04-10T17:43:15.374Z,15.14
2023-04-10T17:46:16.830Z,15.07
2023-04-10T17:49:18.360Z,15.11
2023-04-10T17:52:19.930Z,15.08
2023-04-10T17:55:21.524Z,15.03
2023-04-10T17:58:22.985Z,15.01
2023-04-10T18:01:25.954Z,14.94
2023-04-10T18:04:27.468Z,14.75
2023-04-10T18:07:28.960Z,14.87
2023-04-10T18:10:30.385Z,14.92
2023-04-10T18:13:33.875Z,14.89
2023-04-10T18:16:35.342Z,14.84
2023-04-10T18:19:36.778Z,14.83
2023-04-10T18:22:38.209Z,14.79
2023-04-10T18:25:39.623Z,14.79
2023-04-10T18:28:41.073Z,14.80
2023-04-10T18:31:44.834Z,14.78
2023-04-10T18:34:46.265Z,14.75
2023-04-10T18:37:47.723Z,14.73
2023-04-10T18:40:49.124Z,14.70
2023-04-10T18:44:03.606Z,14.66
2023-04-10T18:47:06.141Z,14.63
2023-04-10T18:50:08.133Z,14.68
2023-04-10T18:53:09.538Z,14.63
2023-04-10T18:56:10.951Z,14.61
2023-04-10T18:59:12.382Z,14.64
2023-04-10T19:02:13.947Z,14.66
2023-04-10T19:05:15.490Z,14.60
2023-04-10T19:08:16.965Z,14.57
2023-04-10T19:11:18.396Z,14.50
2023-04-10T19:14:19.825Z,14.44
2023-04-10T19:17:21.279Z,14.36
2023-04-10T19:20:51.141Z,14.37
2023-04-10T19:23:44.680Z,14.35
2023-04-10T19:26:46.137Z,14.29
2023-04-10T19:29:47.552Z,14.34
2023-04-10T19:32:49.030Z,14.29
2023-04-10T19:35:50.572Z,14.28
2023-04-10T19:38:52.057Z,14.24
2023-04-10T19:41:53.482Z,14.19
2023-04-10T19:44:54.998Z,14.17
2023-04-10T19:47:57.056Z,14.13
2023-04-10T19:51:05.021Z,14.14
2023-04-10T19:54:06.456Z,14.17
2023-04-10T19:57:07.873Z,14.14
2023-04-10T20:00:09.938Z,14.07
2023-04-10T20:03:14.373Z,14.06
2023-04-10T20:06:16.215Z,14.39
2023-04-10T20:09:17.954Z,14.29
2023-04-10T20:12:19.362Z,14.16
2023-04-10T20:15:20.747Z,14.11
2023-04-10T20:18:22.124Z,14.10
2023-04-10T20:21:23.547Z,14.18
2023-04-10T20:24:24.957Z,14.29
2023-04-10T20:27:26.413Z,14.23
2023-04-10T20:30:27.853Z,14.10
2023-04-10T20:33:29.698Z,13.99
2023-04-10T20:36:31.098Z,13.96
2023-04-10T20:39:33.076Z,13.92
2023-04-10T20:42:34.552Z,13.86
2023-04-10T20:45:36.167Z,13.84
2023-04-10T20:48:37.585Z,13.81
2023-04-10T20:51:38.988Z,13.79
2023-04-10T20:54:40.413Z,13.78
2023-04-10T20:57:41.915Z,13.75
2023-04-10T21:00:43.366Z,13.81
2023-04-10T21:03:44.956Z,13.90
2023-04-10T21:06:46.419Z,13.82
2023-04-10T21:09:47.851Z,13.66
2023-04-10T21:12:49.262Z,13.58
2023-04-10T21:15:50.700Z,13.47
2023-04-10T21:18:52.329Z,13.32
2023-04-10T21:21:53.914Z,13.15
2023-04-10T21:24:55.421Z,13.04
2023-04-10T21:27:56.809Z,12.97
2023-04-10T21:30:58.218Z,12.93
2023-04-10T21:33:59.652Z,12.89
2023-04-10T21:37:01.060Z,12.85
2023-04-10T21:40:02.480Z,12.74
2023-04-10T21:43:04.787Z,12.52
2023-04-10T21:46:06.487Z,12.25
2023-04-10T21:49:08.022Z,12.13
2023-04-10T21:52:09.487Z,11.97
2023-04-10T21:55:11.039Z,11.86
2023-04-10T21:58:12.474Z,11.61
2023-04-10T22:01:13.933Z,11.38
2023-04-10T22:04:15.577Z,11.10
2023-04-10T22:07:17.046Z,10.90
2023-04-10T22:10:21.073Z,10.84
2023-04-10T22:13:30.294Z,10.54
2023-04-10T22:16:32.784Z,10.39
2023-04-10T22:19:34.212Z,10.33
2023-04-10T22:22:35.638Z,10.25
2023-04-10T22:25:38.784Z,10.17
2023-04-10T22:28:40.489Z,9.85
2023-04-10T22:31:43.263Z,9.95
2023-04-10T22:34:44.698Z,9.97
2023-04-10T22:37:46.083Z,9.93
2023-04-10T22:40:47.501Z,9.93
2023-04-10T22:43:48.888Z,9.92
2023-04-10T22:46:50.301Z,9.91
2023-04-10T22:49:51.705Z,9.86
2023-04-10T22:52:53.147Z,9.88
2023-04-10T22:55:54.573Z,9.80
2023-04-10T22:58:56.153Z,9.69
2023-04-10T23:01:57.882Z,9.65
2023-04-10T23:04:59.374Z,9.58
2023-04-10T23:08:00.856Z,9.47
2023-04-10T23:11:02.343Z,9.36
2023-04-10T23:14:03.780Z,9.34
2023-04-10T23:17:05.157Z,9.32
2023-04-10T23:20:07.143Z,9.31
2023-04-10T23:23:08.667Z,9.23
2023-04-10T23:26:10.084Z,9.19
2023-04-10T23:29:11.537Z,9.15
2023-04-10T23:32:12.932Z,9.11
2023-04-10T23:35:14.459Z,9.07
2023-04-10T23:38:15.881Z,9.10
2023-04-10T23:41:17.280Z,9.09
2023-04-10T23:44:18.749Z,9.11
2023-04-10T23:47:20.140Z,9.12
2023-04-10T23:50:21.599Z,9.06
2023-04-10T23:53:22.994Z,9.04
2023-04-10T23:56:24.452Z,9.08
2023-04-10T23:59:25.841Z,9.03
